Time;durP1;ratioP1;P1;durP2;ratioP2;P2;SDS_P1;SDS_P2;PMS_P1;PMS_P2;Temp;Humidity;BMP_temperature;BMP_pressure;BME280_temperature;BME280_humidity;BME280_pressure;Samples;Min_cycle;Max_cycle;Signal;HPM_P1;HPM_P2
2023/03/09 00:00:32;;;;;;;41.53;23.17;;;2.20;99.90;;;;;;5096315;28;20194;-46
2023/03/09 00:02:57;;;;;;;39.17;22.30;;;2.20;99.90;;;;;;5096693;28;20545;-41
2023/03/09 00:05:23;;;;;;;40.33;23.30;;;2.20;99.90;;;;;;5096309;28;20170;-44
2023/03/09 00:07:49;;;;;;;38.37;22.00;;;2.20;99.90;;;;;;5096352;28;20178;-42
2023/03/09 00:10:15;;;;;;;34.60;20.50;;;2.10;99.90;;;;;;5096226;28;20194;-45
2023/03/09 00:12:41;;;;;;;34.20;20.10;;;2.20;99.90;;;;;;5096460;28;20220;-44
2023/03/09 00:15:09;;;;;;;34.33;21.03;;;2.10;99.90;;;;;;5096212;28;20178;-43
2023/03/09 00:17:35;;;;;;;37.83;21.17;;;2.10;99.90;;;;;;5096145;28;20234;-43
2023/03/09 00:20:14;;;;;;;35.07;20.20;;;2.10;99.90;;;;;;5096054;28;20267;-43
2023/03/09 00:22:40;;;;;;;33.67;20.23;;;2.10;99.90;;;;;;5097434;28;20170;-44
2023/03/09 00:25:06;;;;;;;33.73;19.53;;;2.10;99.90;;;;;;5097321;28;20181;-45
2023/03/09 00:27:32;;;;;;;34.57;19.70;;;2.10;99.90;;;;;;5096221;28;20175;-43
2023/03/09 00:29:58;;;;;;;32.57;19.07;;;2.10;99.90;;;;;;5114162;28;20193;-44
2023/03/09 00:32:23;;;;;;;33.50;19.50;;;2.10;99.90;;;;;;5095905;28;20255;-45
2023/03/09 00:34:49;;;;;;;32.33;19.17;;;2.10;99.90;;;;;;5114188;28;20287;-47
2023/03/09 00:37:14;;;;;;;36.33;20.03;;;2.10;99.90;;;;;;5114186;28;20237;-47
2023/03/09 00:39:40;;;;;;;33.80;19.17;;;2.10;99.90;;;;;;5114018;28;20219;-47
2023/03/09 00:42:06;;;;;;;39.23;22.43;;;2.10;99.90;;;;;;5114069;28;20605;-48
2023/03/09 00:44:31;;;;;;;34.40;19.13;;;2.20;99.90;;;;;;5113775;28;20167;-49
2023/03/09 00:46:57;;;;;;;34.07;20.17;;;2.10;99.90;;;;;;5114039;28;20255;-47
2023/03/09 00:49:22;;;;;;;33.30;19.30;;;2.10;99.90;;;;;;5117991;28;20269;-47
2023/03/09 00:51:48;;;;;;;37.60;21.23;;;2.10;99.90;;;;;;5120393;28;20202;-48
2023/03/09 00:54:14;;;;;;;39.73;21.70;;;2.10;99.90;;;;;;5119983;28;20174;-47
2023/03/09 00:56:41;;;;;;;31.83;18.30;;;2.10;99.90;;;;;;5120561;28;20657;-48
2023/03/09 00:59:06;;;;;;;37.17;21.30;;;2.10;99.90;;;;;;5116120;28;20174;-47
2023/03/09 01:01:32;;;;;;;36.60;21.43;;;2.20;99.90;;;;;;5114042;28;20204;-49
2023/03/09 01:03:58;;;;;;;35.77;19.97;;;2.10;99.90;;;;;;5114072;28;20162;-49
2023/03/09 01:06:25;;;;;;;40.73;21.47;;;2.10;99.90;;;;;;5113731;28;20260;-47
2023/03/09 01:08:52;;;;;;;36.00;20.10;;;2.10;99.90;;;;;;5113974;28;20174;-49
2023/03/09 01:11:17;;;;;;;35.07;19.10;;;2.10;99.90;;;;;;5113681;28;20189;-48
2023/03/09 01:13:44;;;;;;;40.80;22.50;;;2.10;99.90;;;;;;5114426;28;20197;-48
2023/03/09 01:16:10;;;;;;;39.77;22.10;;;2.10;99.90;;;;;;5121219;28;20576;-47
2023/03/09 01:18:36;;;;;;;40.70;22.50;;;2.10;99.90;;;;;;5113723;28;20220;-47
2023/03/09 01:21:03;;;;;;;39.43;21.03;;;2.20;99.90;;;;;;5114124;28;20198;-47
2023/03/09 01:23:29;;;;;;;44.00;21.93;;;2.10;99.90;;;;;;5113609;28;20174;-45
2023/03/09 01:25:55;;;;;;;42.90;22.10;;;2.10;99.90;;;;;;5113611;28;20178;-46
2023/03/09 01:28:20;;;;;;;43.50;21.57;;;2.10;99.90;;;;;;5113952;28;20175;-44
2023/03/09 01:30:46;;;;;;;41.63;21.80;;;2.10;99.90;;;;;;5113498;28;20262;-47
2023/03/09 01:33:12;;;;;;;40.73;21.83;;;2.10;99.90;;;;;;5114250;28;20171;-46
2023/03/09 01:35:38;;;;;;;47.17;22.33;;;2.10;99.90;;;;;;5113760;28;20206;-45
2023/03/09 01:38:04;;;;;;;42.10;21.93;;;2.10;99.90;;;;;;5113698;28;20202;-46
2023/03/09 01:40:30;;;;;;;46.50;23.53;;;2.10;99.90;;;;;;5113494;28;20251;-45
2023/03/09 01:43:20;;;;;;;41.57;20.93;;;2.10;99.90;;;;;;5113437;28;20555;-47
2023/03/09 01:45:48;;;;;;;47.10;24.30;;;2.10;99.90;;;;;;5098767;28;20187;-45
2023/03/09 01:48:14;;;;;;;42.83;20.93;;;2.20;99.90;;;;;;5113331;28;20197;-45
2023/03/09 01:50:41;;;;;;;44.37;20.83;;;2.20;99.90;;;;;;5113405;28;20190;-48
2023/03/09 01:53:15;;;;;;;38.37;20.00;;;2.10;99.90;;;;;;5113360;28;20231;-46
2023/03/09 01:55:46;;;;;;;41.17;19.57;;;2.20;99.90;;;;;;5116537;28;20165;-45
2023/03/09 01:58:19;;;;;;;44.77;21.97;;;2.10;99.90;;;;;;5117401;28;20538;-48
2023/03/09 02:00:48;;;;;;;43.57;23.20;;;2.10;99.90;;;;;;5117418;28;20285;-47
2023/03/09 02:03:28;;;;;;;41.27;20.73;;;2.20;99.90;;;;;;5117025;28;20170;-49
2023/03/09 02:06:15;;;;;;;40.93;20.87;;;2.20;99.90;;;;;;5117356;28;20155;-49
2023/03/09 02:08:49;;;;;;;43.30;21.93;;;2.20;99.90;;;;;;5116875;28;20203;-50
2023/03/09 02:11:15;;;;;;;43.87;21.87;;;2.10;99.90;;;;;;5117060;28;20282;-47
2023/03/09 02:13:43;;;;;;;43.47;22.93;;;2.10;99.90;;;;;;5117406;28;20593;-48
2023/03/09 02:16:09;;;;;;;44.03;22.53;;;2.20;99.90;;;;;;5116822;28;20553;-48
2023/03/09 02:18:36;;;;;;;51.37;23.00;;;2.10;99.90;;;;;;5117283;28;20170;-49
2023/03/09 02:21:21;;;;;;;49.20;23.57;;;2.10;99.90;;;;;;5118014;28;20202;-48
2023/03/09 02:23:52;;;;;;;47.20;22.20;;;2.10;99.90;;;;;;5099284;28;20184;-47
2023/03/09 02:26:44;;;;;;;48.53;23.17;;;2.10;99.90;;;;;;5116774;28;20209;-48
2023/03/09 02:29:11;;;;;;;54.23;24.83;;;2.10;99.90;;;;;;5117140;28;20170;-49
2023/03/09 02:31:36;;;;;;;48.73;23.73;;;2.10;99.90;;;;;;5116656;28;20206;-50
2023/03/09 02:34:02;;;;;;;49.13;22.27;;;2.10;99.90;;;;;;5116808;28;20234;-48
2023/03/09 02:36:27;;;;;;;50.63;20.93;;;2.10;99.90;;;;;;5116952;28;20191;-48
2023/03/09 02:38:55;;;;;;;42.40;19.53;;;2.00;99.90;;;;;;5117271;28;20182;-48
2023/03/09 02:41:20;;;;;;;48.33;23.50;;;2.00;99.90;;;;;;5117453;28;20193;-48
2023/03/09 02:43:51;;;;;;;46.80;22.77;;;2.00;99.90;;;;;;5116600;28;20182;-49
2023/03/09 02:46:16;;;;;;;52.67;21.37;;;2.00;99.90;;;;;;5116246;28;20173;-48
2023/03/09 02:48:42;;;;;;;50.00;22.83;;;2.00;99.90;;;;;;5116149;28;20189;-47
2023/03/09 02:51:08;;;;;;;49.17;21.47;;;2.00;99.90;;;;;;5097832;28;20289;-48
2023/03/09 02:53:34;;;;;;;46.17;21.10;;;2.00;99.90;;;;;;5116543;28;20185;-50
2023/03/09 02:56:01;;;;;;;48.17;22.63;;;2.00;99.90;;;;;;5116081;28;20182;-47
2023/03/09 02:58:26;;;;;;;51.37;23.40;;;2.00;99.90;;;;;;5115827;28;20684;-47
2023/03/09 03:00:52;;;;;;;53.60;23.77;;;2.00;99.90;;;;;;5117445;28;20191;-47
2023/03/09 03:03:19;;;;;;;52.20;22.17;;;2.00;99.90;;;;;;5116276;28;20197;-48
2023/03/09 03:05:48;;;;;;;53.23;23.30;;;2.00;99.90;;;;;;5115387;28;20178;-47
2023/03/09 03:08:15;;;;;;;49.80;22.17;;;2.00;99.90;;;;;;5116080;28;20174;-47
2023/03/09 03:13:27;;;;;;;44.50;20.07;;;2.00;99.90;;;;;;5093043;28;20685;-48
2023/03/09 03:16:03;;;;;;;41.83;19.57;;;1.90;99.90;;;;;;5096730;28;20244;-49
2023/03/09 03:18:28;;;;;;;40.43;19.27;;;2.00;99.90;;;;;;5099603;28;20185;-48
2023/03/09 03:20:54;;;;;;;47.30;20.07;;;1.90;99.90;;;;;;5096881;28;20277;-48
2023/03/09 03:23:20;;;;;;;46.27;21.43;;;1.90;99.90;;;;;;5095831;28;20266;-49
2023/03/09 03:25:45;;;;;;;48.77;21.13;;;1.90;99.90;;;;;;5095987;28;20220;-49
2023/03/09 03:28:11;;;;;;;51.67;22.27;;;1.90;99.90;;;;;;5095463;28;20542;-49
2023/03/09 03:30:36;;;;;;;57.10;21.93;;;1.90;99.90;;;;;;5095506;28;20692;-48
2023/03/09 03:33:02;;;;;;;55.90;23.83;;;1.90;99.90;;;;;;5095595;28;20577;-50
2023/03/09 03:35:28;;;;;;;50.37;22.57;;;1.90;99.90;;;;;;5095326;28;20186;-50
2023/03/09 03:37:54;;;;;;;45.53;20.60;;;1.90;99.90;;;;;;5076758;28;20207;-50
2023/03/09 03:40:20;;;;;;;54.10;22.40;;;1.90;99.90;;;;;;5095171;28;20199;-47
2023/03/09 03:42:46;;;;;;;57.27;21.67;;;1.90;99.90;;;;;;5094995;28;20672;-47
2023/03/09 03:45:11;;;;;;;57.03;21.60;;;1.90;99.90;;;;;;5094857;28;20185;-47
2023/03/09 03:47:37;;;;;;;53.00;21.87;;;1.90;99.90;;;;;;5077693;28;20173;-48
2023/03/09 03:50:03;;;;;;;50.23;22.43;;;1.90;99.90;;;;;;5094761;28;20238;-46
2023/03/09 03:52:28;;;;;;;55.27;23.03;;;1.90;99.90;;;;;;5094724;28;20194;-46
2023/03/09 03:54:54;;;;;;;62.60;25.03;;;1.90;99.90;;;;;;5094881;28;20190;-48
2023/03/09 03:57:22;;;;;;;54.33;22.87;;;1.90;99.90;;;;;;5094803;28;20202;-47
2023/03/09 03:59:48;;;;;;;60.90;22.87;;;2.00;99.90;;;;;;5094927;28;20190;-46
2023/03/09 04:02:14;;;;;;;55.17;21.13;;;1.90;99.90;;;;;;5094380;28;20170;-47
2023/03/09 04:04:39;;;;;;;58.77;22.70;;;1.90;99.90;;;;;;5094621;28;20175;-46
2023/03/09 04:07:05;;;;;;;57.27;22.30;;;1.90;99.90;;;;;;5094374;28;20194;-47
2023/03/09 04:09:30;;;;;;;58.37;24.03;;;1.90;99.90;;;;;;5094567;28;20273;-46
2023/03/09 04:11:56;;;;;;;57.30;24.70;;;1.90;99.90;;;;;;5094003;28;20739;-46
2023/03/09 04:14:22;;;;;;;63.07;23.87;;;1.90;99.90;;;;;;5094437;28;20187;-47
2023/03/09 04:16:47;;;;;;;57.00;23.73;;;2.00;99.90;;;;;;5094146;28;20209;-47
2023/03/09 04:19:13;;;;;;;59.70;23.10;;;1.90;99.90;;;;;;5075109;28;20183;-48
2023/03/09 04:21:38;;;;;;;50.07;22.30;;;1.90;99.90;;;;;;5094476;28;20198;-48
2023/03/09 04:24:04;;;;;;;62.10;24.03;;;1.90;99.90;;;;;;5094756;28;20542;-49
2023/03/09 04:26:30;;;;;;;58.47;23.13;;;1.90;99.90;;;;;;5094179;28;20214;-48
2023/03/09 04:28:55;;;;;;;54.80;23.23;;;2.00;99.90;;;;;;5094083;28;20547;-46
2023/03/09 04:31:21;;;;;;;54.77;21.37;;;1.90;99.90;;;;;;5076196;28;20241;-48
2023/03/09 04:33:46;;;;;;;51.10;22.67;;;1.90;99.90;;;;;;5094534;28;20519;-48
2023/03/09 04:36:12;;;;;;;50.40;22.60;;;1.90;99.90;;;;;;5094219;28;20206;-46
2023/03/09 04:38:38;;;;;;;56.43;23.30;;;1.90;99.90;;;;;;5094319;28;20652;-48
2023/03/09 04:41:04;;;;;;;62.73;24.93;;;1.90;99.90;;;;;;5093940;28;20244;-48
2023/03/09 04:43:29;;;;;;;56.60;23.00;;;1.90;99.90;;;;;;5058989;28;20182;-46
2023/03/09 04:45:55;;;;;;;63.50;24.77;;;1.90;99.90;;;;;;5093743;28;20654;-47
2023/03/09 04:48:20;;;;;;;50.60;21.27;;;1.90;99.90;;;;;;5093576;28;20266;-48
2023/03/09 04:50:46;;;;;;;44.17;19.83;;;1.90;99.90;;;;;;5093562;28;20273;-46
2023/03/09 04:53:12;;;;;;;48.50;20.17;;;1.90;99.90;;;;;;5093699;28;20545;-46
2023/03/09 04:55:37;;;;;;;50.27;20.80;;;1.90;99.90;;;;;;5093791;28;20190;-46
2023/03/09 04:58:03;;;;;;;44.33;20.33;;;1.90;99.90;;;;;;5093399;28;20202;-46
2023/03/09 05:00:30;;;;;;;49.83;21.33;;;1.90;99.90;;;;;;5093744;28;20199;-46
2023/03/09 05:02:56;;;;;;;54.97;22.67;;;1.90;99.90;;;;;;5093806;28;20205;-46
2023/03/09 05:05:21;;;;;;;53.03;20.60;;;1.90;99.90;;;;;;5075777;28;20179;-47
2023/03/09 05:07:47;;;;;;;52.27;21.37;;;1.90;99.90;;;;;;5093515;28;20615;-46
2023/03/09 05:10:13;;;;;;;44.37;19.87;;;1.90;99.90;;;;;;5093583;28;20199;-47
2023/03/09 05:12:38;;;;;;;42.60;19.77;;;1.90;99.90;;;;;;5093235;28;20200;-47
2023/03/09 05:15:04;;;;;;;44.57;19.37;;;1.90;99.90;;;;;;5093428;28;20704;-47
2023/03/09 05:17:31;;;;;;;40.90;18.60;;;1.90;99.90;;;;;;5093806;28;20203;-48
2023/03/09 05:19:56;;;;;;;38.47;16.63;;;1.90;99.90;;;;;;5093515;28;20252;-47
2023/03/09 05:22:22;;;;;;;37.67;16.70;;;1.90;99.90;;;;;;5093661;28;20182;-47
2023/03/09 05:24:47;;;;;;;36.93;17.07;;;1.90;99.90;;;;;;5093318;28;20186;-47
2023/03/09 05:27:13;;;;;;;38.17;17.10;;;1.90;99.90;;;;;;5093299;28;20190;-48
2023/03/09 05:29:39;;;;;;;40.60;17.77;;;1.90;99.90;;;;;;5094711;28;20646;-47
2023/03/09 05:32:06;;;;;;;42.27;18.67;;;1.90;99.90;;;;;;5097291;28;20179;-47
2023/03/09 05:34:33;;;;;;;40.33;18.37;;;1.90;99.90;;;;;;5097604;28;20178;-47
2023/03/09 05:36:59;;;;;;;41.47;18.40;;;1.90;99.90;;;;;;5097212;28;20290;-46
2023/03/09 05:39:24;;;;;;;48.80;22.03;;;1.90;99.90;;;;;;5097166;28;20279;-47
2023/03/09 05:41:50;;;;;;;50.07;21.97;;;1.90;99.90;;;;;;5097187;28;20206;-47
2023/03/09 05:44:16;;;;;;;44.00;18.90;;;1.90;99.90;;;;;;5097096;28;20193;-47
2023/03/09 05:46:41;;;;;;;45.50;19.37;;;1.90;99.90;;;;;;5097521;28;20206;-46
2023/03/09 05:49:07;;;;;;;40.60;17.60;;;1.90;99.90;;;;;;5096941;28;20171;-45
2023/03/09 05:51:33;;;;;;;42.70;19.03;;;1.90;99.90;;;;;;5078654;28;20252;-47
2023/03/09 05:53:58;;;;;;;39.23;18.53;;;1.90;99.90;;;;;;5097346;28;20205;-45
2023/03/09 05:56:24;;;;;;;34.50;17.13;;;1.90;99.90;;;;;;5096746;28;20205;-46
2023/03/09 05:58:50;;;;;;;36.20;17.63;;;1.90;99.90;;;;;;5096733;28;20572;-46
2023/03/09 06:01:22;;;;;;;37.77;16.80;;;1.90;99.90;;;;;;5096935;28;20198;-47
2023/03/09 06:03:48;;;;;;;36.47;17.53;;;1.90;99.90;;;;;;5096908;28;20166;-45
2023/03/09 06:06:15;;;;;;;36.90;16.60;;;1.90;99.90;;;;;;5096497;28;20274;-46
2023/03/09 06:08:41;;;;;;;32.57;15.53;;;1.90;99.90;;;;;;5096629;28;20221;-46
2023/03/09 06:11:07;;;;;;;38.90;16.97;;;1.90;99.90;;;;;;5096410;28;20221;-46
2023/03/09 06:13:32;;;;;;;35.83;16.83;;;1.90;99.90;;;;;;5097125;28;20748;-47
2023/03/09 06:15:58;;;;;;;35.63;16.63;;;1.90;99.90;;;;;;5097221;28;20269;-47
2023/03/09 06:18:24;;;;;;;44.37;18.47;;;1.90;99.90;;;;;;5107701;28;20186;-46
2023/03/09 06:20:49;;;;;;;42.23;19.20;;;1.90;99.90;;;;;;5105319;28;20209;-46
2023/03/09 06:23:15;;;;;;;41.03;19.97;;;1.90;99.90;;;;;;5097389;28;20178;-46
2023/03/09 06:25:41;;;;;;;46.53;19.70;;;1.90;99.90;;;;;;5096435;28;20274;-47
2023/03/09 06:28:06;;;;;;;44.70;17.87;;;1.90;99.90;;;;;;5096327;28;20215;-47
2023/03/09 06:30:32;;;;;;;43.97;19.93;;;1.90;99.90;;;;;;5096626;28;20202;-47
2023/03/09 06:32:58;;;;;;;38.43;17.77;;;1.90;99.90;;;;;;5096708;28;20190;-46
2023/03/09 06:35:24;;;;;;;42.93;18.80;;;1.90;99.90;;;;;;5078818;28;20251;-46
2023/03/09 06:37:50;;;;;;;45.80;20.80;;;1.90;99.90;;;;;;5096903;28;20539;-48
2023/03/09 06:40:17;;;;;;;49.13;20.90;;;1.90;99.90;;;;;;5096241;28;20305;-48
2023/03/09 06:42:42;;;;;;;43.40;20.37;;;1.90;99.90;;;;;;5095976;28;20175;-47
2023/03/09 06:45:08;;;;;;;45.90;20.60;;;2.00;99.90;;;;;;5078241;28;20183;-47
2023/03/09 06:47:34;;;;;;;47.43;21.73;;;1.90;99.90;;;;;;5096158;28;20692;-47
2023/03/09 06:49:59;;;;;;;47.87;21.53;;;1.90;99.90;;;;;;5095825;28;20202;-46
2023/03/09 06:52:25;;;;;;;49.30;20.67;;;1.90;99.90;;;;;;5095977;28;20190;-47
2023/03/09 06:54:51;;;;;;;44.20;20.33;;;1.90;99.90;;;;;;5095819;28;20257;-46
2023/03/09 06:57:17;;;;;;;48.83;21.03;;;1.90;99.90;;;;;;5095819;28;20206;-46
2023/03/09 06:59:43;;;;;;;45.90;19.70;;;2.00;99.90;;;;;;5095773;28;20184;-48
2023/03/09 07:02:13;;;;;;;52.37;20.07;;;2.00;99.90;;;;;;5095774;28;20179;-47
2023/03/09 07:04:39;;;;;;;50.37;19.97;;;2.00;99.90;;;;;;5096421;28;20187;-48
2023/03/09 07:07:04;;;;;;;48.00;20.50;;;2.10;99.90;;;;;;5077460;28;20182;-47
2023/03/09 07:09:31;;;;;;;52.57;20.13;;;2.10;99.90;;;;;;5095782;28;20641;-46
2023/03/09 07:11:57;;;;;;;44.77;19.73;;;2.10;99.90;;;;;;5095462;28;20646;-47
2023/03/09 07:14:24;;;;;;;42.83;17.97;;;2.10;99.90;;;;;;5095435;28;20559;-46
2023/03/09 07:16:53;;;;;;;49.27;19.73;;;2.10;99.90;;;;;;5077283;28;20210;-47
2023/03/09 07:19:18;;;;;;;44.67;19.57;;;2.20;99.90;;;;;;5095266;28;20488;-46
2023/03/09 07:21:44;;;;;;;46.43;18.93;;;2.20;99.90;;;;;;5076994;28;20335;-46
2023/03/09 07:24:09;;;;;;;45.40;18.37;;;2.20;99.90;;;;;;5095442;28;20747;-47
2023/03/09 07:26:35;;;;;;;46.20;19.80;;;2.30;99.90;;;;;;5095502;28;20634;-47
2023/03/09 07:29:01;;;;;;;41.57;18.73;;;2.30;99.90;;;;;;5095067;28;20232;-48
2023/03/09 07:31:28;;;;;;;41.80;18.33;;;2.40;99.90;;;;;;5095025;28;20247;-47
2023/03/09 07:33:55;;;;;;;42.20;18.70;;;2.40;99.90;;;;;;5095344;28;20171;-46
2023/03/09 07:36:20;;;;;;;47.33;19.97;;;2.50;99.90;;;;;;5095001;28;20210;-48
2023/03/09 07:38:47;;;;;;;42.00;16.13;;;2.50;99.90;;;;;;5094909;28;20538;-47
2023/03/09 07:41:13;;;;;;;41.40;17.43;;;2.60;99.90;;;;;;5094849;28;20644;-47
2023/03/09 07:43:43;;;;;;;36.47;16.53;;;2.60;99.90;;;;;;5095151;28;20258;-47
2023/03/09 07:46:11;;;;;;;38.47;16.73;;;2.70;99.90;;;;;;5095126;28;20171;-46
2023/03/09 07:48:37;;;;;;;42.17;17.13;;;2.70;99.90;;;;;;5095300;28;20183;-47
2023/03/09 07:51:04;;;;;;;43.23;17.80;;;2.80;99.90;;;;;;5095903;28;20632;-47
2023/03/09 07:53:30;;;;;;;44.03;17.70;;;2.80;99.90;;;;;;5077164;28;20629;-48
2023/03/09 07:55:57;;;;;;;37.80;16.73;;;2.90;99.90;;;;;;5094991;28;20179;-47
2023/03/09 07:58:23;;;;;;;32.73;15.00;;;2.90;99.90;;;;;;5095039;28;20549;-46
2023/03/09 08:00:48;;;;;;;40.63;16.87;;;2.90;99.90;;;;;;5094746;28;20250;-47
2023/03/09 08:03:14;;;;;;;42.00;16.73;;;3.00;99.90;;;;;;5095042;28;20575;-48
2023/03/09 08:05:41;;;;;;;37.00;16.53;;;3.00;99.90;;;;;;5094958;28;20618;-48
2023/03/09 08:08:07;;;;;;;33.03;15.70;;;3.00;99.90;;;;;;5094770;28;20677;-46
2023/03/09 08:10:33;;;;;;;40.70;17.60;;;3.00;99.90;;;;;;5094629;28;20198;-48
2023/03/09 08:12:59;;;;;;;33.70;16.00;;;3.10;99.90;;;;;;5094431;28;20191;-47
2023/03/09 08:15:25;;;;;;;34.90;16.00;;;3.10;99.90;;;;;;5094685;28;20654;-46
2023/03/09 08:17:51;;;;;;;31.80;14.50;;;3.10;99.90;;;;;;5094231;28;20247;-48
2023/03/09 08:20:16;;;;;;;33.93;15.07;;;3.20;99.90;;;;;;5094638;28;20195;-47
2023/03/09 08:22:42;;;;;;;29.70;14.50;;;3.20;99.90;;;;;;5094330;28;20272;-48
2023/03/09 08:25:08;;;;;;;33.77;14.50;;;3.20;99.90;;;;;;5094699;28;20301;-47
2023/03/09 08:27:41;;;;;;;34.13;16.53;;;3.30;99.90;;;;;;5094224;28;20174;-47
2023/03/09 08:30:09;;;;;;;34.10;15.83;;;3.40;99.90;;;;;;5094610;28;20194;-46
2023/03/09 08:32:34;;;;;;;37.33;16.00;;;3.40;99.90;;;;;;5094502;28;20179;-49
2023/03/09 08:35:00;;;;;;;33.80;15.80;;;3.40;99.90;;;;;;5093916;28;20182;-47
2023/03/09 08:37:25;;;;;;;34.40;14.83;;;3.50;99.90;;;;;;5094154;28;20226;-46
2023/03/09 08:39:51;;;;;;;31.27;15.57;;;3.50;99.90;;;;;;5076088;28;20216;-48
2023/03/09 08:42:18;;;;;;;31.60;15.30;;;3.50;99.90;;;;;;5094420;28;20170;-47
2023/03/09 08:44:43;;;;;;;31.77;14.20;;;3.60;99.90;;;;;;5093716;28;20258;-47
2023/03/09 08:47:09;;;;;;;32.77;14.23;;;3.60;99.90;;;;;;5094015;28;20204;-46
2023/03/09 08:49:37;;;;;;;35.70;16.17;;;3.70;99.90;;;;;;5093667;28;20190;-47
2023/03/09 08:52:03;;;;;;;33.73;16.80;;;3.70;99.90;;;;;;5093816;28;20191;-47
2023/03/09 08:54:28;;;;;;;31.33;16.50;;;3.70;99.90;;;;;;5093859;28;20187;-48
2023/03/09 08:56:54;;;;;;;38.73;18.03;;;3.70;99.90;;;;;;5075552;28;20213;-48
2023/03/09 08:59:20;;;;;;;34.27;15.60;;;3.70;99.90;;;;;;5094121;28;20182;-48
2023/03/09 09:01:45;;;;;;;26.57;14.67;;;3.70;99.90;;;;;;5093631;28;20276;-47
2023/03/09 09:04:11;;;;;;;27.87;14.07;;;3.70;99.90;;;;;;5096692;28;20177;-47
2023/03/09 09:06:37;;;;;;;23.93;13.43;;;3.80;99.90;;;;;;5100804;28;20228;-45
2023/03/09 09:09:02;;;;;;;18.07;10.30;;;3.80;99.90;;;;;;5100244;28;20641;-46
2023/03/09 09:11:28;;;;;;;21.63;11.70;;;3.80;99.90;;;;;;5100606;28;20211;-48
2023/03/09 09:13:54;;;;;;;27.10;13.10;;;3.80;99.90;;;;;;5112667;22;20175;-49
2023/03/09 09:16:20;;;;;;;30.03;12.07;;;3.80;99.90;;;;;;5079828;28;20160;-48
2023/03/09 09:18:46;;;;;;;24.80;12.70;;;3.90;99.90;;;;;;5080166;28;20175;-46
2023/03/09 09:21:14;;;;;;;28.13;13.67;;;3.90;99.90;;;;;;5080023;28;20192;-48
2023/03/09 09:23:41;;;;;;;28.27;15.20;;;4.00;99.90;;;;;;5079744;28;20171;-49
2023/03/09 09:26:07;;;;;;;29.93;15.77;;;4.00;99.90;;;;;;5078628;28;20180;-51
2023/03/09 09:28:34;;;;;;;33.50;15.97;;;4.10;99.90;;;;;;5079883;28;20184;-51
2023/03/09 09:31:03;;;;;;;31.73;15.77;;;4.20;99.90;;;;;;5079902;28;20233;-51
2023/03/09 09:33:30;;;;;;;35.10;16.00;;;4.20;99.90;;;;;;5079771;28;20196;-51
2023/03/09 09:36:05;;;;;;;34.40;16.83;;;4.30;99.90;;;;;;5080059;28;20189;-51
2023/03/09 09:38:33;;;;;;;34.10;16.77;;;4.40;99.90;;;;;;5080067;28;20263;-51
2023/03/09 09:41:04;;;;;;;31.83;16.20;;;4.40;99.90;;;;;;5079691;28;20195;-52
2023/03/09 09:43:31;;;;;;;34.20;16.83;;;4.50;99.90;;;;;;5080580;28;20180;-52
2023/03/09 09:45:59;;;;;;;37.03;17.87;;;4.60;99.90;;;;;;5079793;28;20174;-51
2023/03/09 09:48:27;;;;;;;35.70;17.63;;;4.50;99.90;;;;;;5079673;28;20180;-52
2023/03/09 09:51:07;;;;;;;37.97;17.57;;;4.50;99.90;;;;;;5079733;28;20202;-51
2023/03/09 09:53:51;;;;;;;35.50;16.00;;;4.60;99.90;;;;;;5079938;28;20170;-51
2023/03/09 09:56:23;;;;;;;32.50;15.10;;;4.70;99.90;;;;;;5080327;28;20168;-52
2023/03/09 09:58:54;;;;;;;34.17;16.70;;;4.80;99.90;;;;;;5079870;28;20533;-51
2023/03/09 10:01:36;;;;;;;35.77;16.43;;;4.90;99.90;;;;;;5079772;28;20224;-51
2023/03/09 10:04:09;;;;;;;35.00;17.40;;;4.90;99.90;;;;;;5079875;28;20492;-52
2023/03/09 10:06:36;;;;;;;37.13;17.10;;;4.80;99.90;;;;;;5079715;28;20532;-51
2023/03/09 10:09:26;;;;;;;28.50;13.87;;;4.90;99.90;;;;;;5079449;28;20177;-52
2023/03/09 10:11:58;;;;;;;40.43;17.93;;;4.90;99.90;;;;;;5079366;28;20201;-51
2023/03/09 10:14:42;;;;;;;41.87;17.47;;;5.00;99.90;;;;;;5079315;28;20644;-51
2023/03/09 10:17:39;;;;;;;43.00;17.97;;;5.00;99.90;;;;;;5076270;28;20198;-51
2023/03/09 10:20:22;;;;;;;37.83;18.07;;;5.10;99.90;;;;;;5076377;28;20194;-51
2023/03/09 10:22:50;;;;;;;46.90;17.73;;;5.10;99.90;;;;;;5076055;28;20180;-52
2023/03/09 10:25:19;;;;;;;45.70;19.07;;;5.20;99.90;;;;;;5076011;28;20182;-52
2023/03/09 10:28:06;;;;;;;44.47;19.53;;;5.20;99.90;;;;;;5076136;28;20174;-52
2023/03/09 10:31:14;;;;;;;45.67;19.43;;;5.30;99.90;;;;;;5076090;28;20198;-51
2023/03/09 10:34:16;;;;;;;44.33;18.30;;;5.30;99.90;;;;;;5076468;28;20161;-54
2023/03/09 10:37:05;;;;;;;52.87;20.10;;;5.30;99.90;;;;;;5076173;28;20261;-52
2023/03/09 10:39:44;;;;;;;44.90;19.80;;;5.30;99.90;;;;;;5076120;28;20163;-53
2023/03/09 10:42:23;;;;;;;45.93;20.37;;;5.40;99.90;;;;;;5075991;28;20171;-51
2023/03/09 10:45:23;;;;;;;44.33;19.40;;;5.40;99.90;;;;;;5074470;28;20585;-52
2023/03/09 10:48:02;;;;;;;53.67;21.93;;;5.40;99.90;;;;;;5076040;28;20288;-52
2023/03/09 10:50:31;;;;;;;47.93;21.77;;;5.40;99.90;;;;;;5075958;28;20197;-52
2023/03/09 10:53:13;;;;;;;48.97;21.30;;;5.40;99.90;;;;;;5075704;28;20178;-52
2023/03/09 10:55:45;;;;;;;48.33;20.93;;;5.40;99.90;;;;;;5076500;28;20175;-52
2023/03/09 10:58:15;;;;;;;46.17;21.90;;;5.50;99.90;;;;;;5076114;28;20611;-51
2023/03/09 11:01:09;;;;;;;47.27;20.27;;;5.50;99.90;;;;;;5075440;28;20196;-51
2023/03/09 11:03:38;;;;;;;51.33;21.47;;;5.50;99.90;;;;;;5061400;28;20191;-52
2023/03/09 11:06:27;;;;;;;50.70;21.73;;;5.50;99.90;;;;;;5075594;28;20625;-52
2023/03/09 11:09:20;;;;;;;43.07;19.77;;;5.50;99.90;;;;;;5075539;28;20169;-52
2023/03/09 11:11:47;;;;;;;49.00;21.77;;;5.50;99.90;;;;;;5071091;28;20215;-53
2023/03/09 11:14:22;;;;;;;46.97;21.97;;;5.50;99.90;;;;;;5075654;28;20191;-52
2023/03/09 11:16:52;;;;;;;43.37;20.53;;;5.50;99.90;;;;;;5075002;28;20205;-51
2023/03/09 11:19:20;;;;;;;43.63;20.00;;;5.50;99.90;;;;;;5075252;28;20568;-50
2023/03/09 11:22:12;;;;;;;44.00;19.17;;;5.50;99.90;;;;;;5074921;28;20551;-51
2023/03/09 11:24:43;;;;;;;44.23;19.63;;;5.60;99.90;;;;;;5070989;28;20187;-51
2023/03/09 11:27:26;;;;;;;40.60;19.27;;;5.60;99.90;;;;;;5074681;28;20168;-53
2023/03/09 11:30:01;;;;;;;43.77;20.30;;;5.60;99.90;;;;;;5074907;28;20167;-51
2023/03/09 11:32:28;;;;;;;42.37;20.33;;;5.70;99.90;;;;;;5075055;28;20508;-51
2023/03/09 11:34:53;;;;;;;42.23;19.90;;;5.80;99.90;;;;;;5074915;28;20187;-51
2023/03/09 11:37:34;;;;;;;38.93;19.57;;;5.90;99.90;;;;;;5074787;28;20541;-50
2023/03/09 11:40:10;;;;;;;44.60;19.30;;;5.90;99.90;;;;;;5074803;28;20280;-51
2023/03/09 11:42:41;;;;;;;38.77;19.17;;;5.90;99.90;;;;;;5074491;28;20175;-51
2023/03/09 11:45:16;;;;;;;44.97;20.23;;;5.90;99.90;;;;;;5074688;28;20160;-52
2023/03/09 11:47:47;;;;;;;46.57;21.43;;;5.90;99.90;;;;;;5074736;28;20629;-52
2023/03/09 11:50:21;;;;;;;41.70;20.90;;;5.80;99.90;;;;;;5074578;28;20207;-52
2023/03/09 11:52:52;;;;;;;39.63;20.90;;;5.80;99.90;;;;;;5074633;28;20168;-52
2023/03/09 11:55:22;;;;;;;42.60;22.43;;;5.80;99.90;;;;;;5074654;28;20245;-52
2023/03/09 11:57:53;;;;;;;41.23;20.20;;;5.70;99.90;;;;;;5074624;28;20221;-51
2023/03/09 12:00:20;;;;;;;38.87;20.63;;;5.70;99.90;;;;;;5074805;28;20199;-51
2023/03/09 12:03:11;;;;;;;37.67;18.53;;;5.70;99.90;;;;;;5074108;28;20172;-52
2023/03/09 12:06:03;;;;;;;43.43;21.77;;;5.70;99.90;;;;;;5074087;28;20171;-50
2023/03/09 12:08:35;;;;;;;36.93;20.40;;;5.70;99.90;;;;;;5074277;28;20233;-52
2023/03/09 12:11:17;;;;;;;39.63;20.77;;;5.80;99.90;;;;;;5073949;28;20241;-52
2023/03/09 12:13:54;;;;;;;43.83;20.30;;;5.80;99.90;;;;;;5074358;28;20176;-53
2023/03/09 12:16:39;;;;;;;34.90;18.97;;;5.90;99.90;;;;;;5074092;28;20179;-52
2023/03/09 12:19:27;;;;;;;39.07;20.83;;;5.80;99.90;;;;;;5073862;28;20246;-52
2023/03/09 12:22:04;;;;;;;39.23;19.33;;;5.90;99.90;;;;;;5073753;28;20195;-51
2023/03/09 12:24:39;;;;;;;40.00;20.70;;;5.90;99.90;;;;;;5073991;28;20533;-50
2023/03/09 12:27:16;;;;;;;36.60;19.23;;;6.00;99.90;;;;;;5073877;28;20206;-52
2023/03/09 12:29:50;;;;;;;35.70;18.40;;;6.00;99.90;;;;;;5073886;28;20198;-50
2023/03/09 12:32:21;;;;;;;36.67;20.10;;;6.10;99.90;;;;;;5074254;28;20189;-49
2023/03/09 12:34:48;;;;;;;38.43;20.37;;;6.20;99.90;;;;;;5073611;28;20168;-49
2023/03/09 12:37:36;;;;;;;39.13;19.33;;;6.20;99.90;;;;;;5073785;28;20250;-45
2023/03/09 12:40:20;;;;;;;38.20;22.77;;;6.20;99.90;;;;;;5072564;28;20670;-47
2023/03/09 12:42:49;;;;;;;37.63;20.13;;;6.20;99.90;;;;;;5073791;28;20160;-48
2023/03/09 12:45:17;;;;;;;37.90;21.73;;;6.20;99.90;;;;;;5073467;28;20217;-48
2023/03/09 12:48:01;;;;;;;36.93;20.03;;;6.20;99.90;;;;;;5073391;28;20579;-49